Terminal Aerodrome Forecast
Issued by NWS Louisville, KY

Home | Current Version | Previous Version | Text Only | Print | Product List | Glossary On
Versions: 1 2 3 4 5 6 7 8 9 10 11 12
000
FTUS43 KLMK 050500
TAFLEX
TAF
KLEX 050520Z 0506/0606 20004KT P6SM FEW150 SCT250
     FM051400 22009KT P6SM SCT060 SCT150
     FM060100 20004KT P6SM SKC=

USA.gov is the U.S. government's official web portal to all federal, state and local government web resources and services.